Glass Lake, New York
Current Conditions -  °F | °C
As of 8:51 AM on Sunday 23 Nov 2014 (Local Time) from KALB Reporting Station
Overcast Overcast  
Wind Chill: 39°   Ceiling: 3500
Heat Index: 43°   Visibility: 10mi
Dew Point: 26°   Wind: 7mph
Humidity: 51%   Direction: 160°SSE
Pressure: 30.13"   Gusts: NA
Location:  42.6497°N, 73.5273°W
Report Text: KALB 231351Z 16006KT 10SM OVC035 06/M03 A3013 RMK AO2 SLP206 BINOVC T00611033
Loading
Personal Weather Stations






























Interactive Weather Map New forecast layout! Learn more

10-Day Weather Forecast

Advertisements
Track Severe Weather on mobile